createdAt,value
2022-12-13T00:00:33.581Z,-1.33
2022-12-13T00:03:01.116Z,-1.38
2022-12-13T00:05:28.751Z,-1.34
2022-12-13T00:07:57.671Z,-1.38
2022-12-13T00:10:25.147Z,-1.23
2022-12-13T00:12:52.596Z,-1.26
2022-12-13T00:15:20.531Z,-1.16
2022-12-13T00:17:48.052Z,-1.16
2022-12-13T00:20:15.554Z,-0.95
2022-12-13T00:22:43.188Z,-1.04
2022-12-13T00:25:12.254Z,-0.98
2022-12-13T00:27:39.897Z,-0.93
2022-12-13T00:30:08.418Z,-0.88
2022-12-13T00:32:35.918Z,-0.88
2022-12-13T00:35:03.468Z,-0.90
2022-12-13T00:37:31.095Z,-0.99
2022-12-13T00:39:58.617Z,-1.05
2022-12-13T00:42:27.480Z,-1.12
2022-12-13T00:44:55.902Z,-1.08
2022-12-13T00:47:24.400Z,-1.14
2022-12-13T00:49:51.859Z,-1.19
2022-12-13T00:52:19.358Z,-1.14
2022-12-13T00:54:47.011Z,-1.25
2022-12-13T00:57:14.520Z,-1.29
2022-12-13T00:59:43.380Z,-1.28
2022-12-13T01:02:11.055Z,-1.33
2022-12-13T01:04:38.558Z,-1.42
2022-12-13T01:07:06.050Z,-1.44
2022-12-13T01:09:33.738Z,-1.43
2022-12-13T01:12:03.216Z,-1.43
2022-12-13T01:14:30.750Z,-1.49
2022-12-13T01:16:59.664Z,-1.51
2022-12-13T01:19:27.951Z,-1.50
2022-12-13T01:21:55.980Z,-1.33
2022-12-13T01:24:24.799Z,-1.23
2022-12-13T01:26:52.383Z,-1.24
2022-12-13T01:29:26.037Z,-1.44
2022-12-13T01:31:54.348Z,-1.57
2022-12-13T01:34:26.336Z,-1.77
2022-12-13T01:36:54.545Z,-1.74
2022-12-13T01:39:26.787Z,-1.84
2022-12-13T01:41:59.234Z,-1.85
2022-12-13T01:44:41.591Z,-1.80
2022-12-13T01:47:09.095Z,-1.91
2022-12-13T01:49:38.215Z,-1.93
2022-12-13T01:52:07.803Z,-1.74
2022-12-13T01:54:35.727Z,-1.78
2022-12-13T01:57:03.496Z,-1.71
2022-12-13T01:59:31.014Z,-1.69
2022-12-13T02:02:00.653Z,-1.88
2022-12-13T02:04:31.868Z,-1.98
2022-12-13T02:07:01.397Z,-2.11
2022-12-13T02:09:29.369Z,-2.11
2022-12-13T02:11:56.907Z,-2.16
2022-12-13T02:14:24.449Z,-2.18
2022-12-13T02:16:53.134Z,-2.28
2022-12-13T02:19:50.749Z,-2.23
2022-12-13T02:22:34.317Z,-2.13
2022-12-13T02:25:14.252Z,-2.02
2022-12-13T02:27:52.654Z,-2.10
2022-12-13T02:30:31.044Z,-2.18
2022-12-13T02:33:09.051Z,-2.23
2022-12-13T02:35:38.905Z,-2.24
2022-12-13T02:38:11.512Z,-2.26
2022-12-13T02:40:42.965Z,-2.33
2022-12-13T02:43:15.595Z,-2.35
2022-12-13T02:45:52.633Z,-2.27
2022-12-13T02:48:22.856Z,-2.09
2022-12-13T02:50:51.236Z,-2.06
2022-12-13T02:53:19.085Z,-2.15
2022-12-13T02:55:46.758Z,-2.26
2022-12-13T02:58:15.195Z,-2.28
2022-12-13T03:00:54.704Z,-2.32
2022-12-13T03:03:29.406Z,-2.31
2022-12-13T03:06:23.078Z,-2.37
2022-12-13T03:08:53.308Z,-2.52
2022-12-13T03:11:20.779Z,-2.51
2022-12-13T03:13:48.831Z,-2.42
2022-12-13T03:16:24.732Z,-2.34
2022-12-13T03:18:53.472Z,-2.23
2022-12-13T03:21:21.233Z,-2.29
2022-12-13T03:23:48.953Z,-2.24
2022-12-13T03:26:18.647Z,-2.17
2022-12-13T03:28:46.367Z,-2.31
2022-12-13T03:31:14.091Z,-2.31
2022-12-13T03:33:43.260Z,-2.33
2022-12-13T03:36:11.412Z,-2.30
2022-12-13T03:38:40.035Z,-2.41
2022-12-13T03:41:08.892Z,-2.48
2022-12-13T03:43:36.401Z,-2.43
2022-12-13T03:46:03.913Z,-2.30
2022-12-13T03:48:31.488Z,-2.17
2022-12-13T03:51:00.288Z,-2.09
2022-12-13T03:53:33.718Z,-2.08
2022-12-13T03:56:02.673Z,-1.99
2022-12-13T03:58:35.080Z,-1.94
2022-12-13T04:01:06.454Z,-1.98
2022-12-13T04:03:35.015Z,-1.93
2022-12-13T04:06:04.560Z,-1.94
2022-12-13T04:08:32.352Z,-1.89
2022-12-13T04:11:00.126Z,-1.82
2022-12-13T04:13:32.740Z,-1.83
2022-12-13T04:16:01.180Z,-1.85
2022-12-13T04:18:28.952Z,-1.98
2022-12-13T04:20:57.438Z,-1.97
2022-12-13T04:23:26.640Z,-1.96
2022-12-13T04:25:54.302Z,-1.96
2022-12-13T04:28:23.102Z,-1.83
2022-12-13T04:30:52.918Z,-1.95
2022-12-13T04:33:22.004Z,-1.97
2022-12-13T04:35:49.723Z,-1.98
2022-12-13T04:38:17.296Z,-2.13
2022-12-13T04:40:46.123Z,-2.14
2022-12-13T04:43:13.619Z,-1.94
2022-12-13T04:45:41.502Z,-2.07
2022-12-13T04:48:09.652Z,-2.15
2022-12-13T04:50:37.973Z,-2.20
2022-12-13T04:53:05.725Z,-1.93
2022-12-13T04:55:33.367Z,-1.97
2022-12-13T04:58:02.388Z,-1.90
2022-12-13T05:00:30.033Z,-1.76
2022-12-13T05:02:57.710Z,-1.84
2022-12-13T05:05:25.400Z,-1.83
2022-12-13T05:07:53.125Z,-1.92
2022-12-13T05:10:34.227Z,-1.96
2022-12-13T05:13:05.391Z,-1.95
2022-12-13T05:15:33.511Z,-1.95
2022-12-13T05:18:10.238Z,-1.80
2022-12-13T05:20:39.055Z,-1.90
2022-12-13T05:23:06.737Z,-1.98
2022-12-13T05:25:35.152Z,-2.18
2022-12-13T05:28:27.127Z,-2.25
2022-12-13T05:30:52.141Z,-2.31
2022-12-13T05:33:20.037Z,-2.30
2022-12-13T05:35:47.736Z,-2.28
2022-12-13T05:38:15.523Z,-2.23
2022-12-13T05:40:43.512Z,-2.26
2022-12-13T05:43:22.099Z,-2.62
2022-12-13T05:45:51.903Z,-2.45
2022-12-13T05:48:24.394Z,-2.38
2022-12-13T05:51:10.973Z,-2.32
2022-12-13T05:53:40.597Z,-2.68
2022-12-13T05:56:08.921Z,-2.73
2022-12-13T05:58:38.054Z,-2.78
2022-12-13T06:01:08.447Z,-2.71
2022-12-13T06:03:36.604Z,-2.79
2022-12-13T06:06:05.070Z,-2.79
2022-12-13T06:08:32.995Z,-2.72
2022-12-13T06:11:10.634Z,-3.00
2022-12-13T06:13:42.635Z,-2.94
2022-12-13T06:16:23.025Z,-2.93
2022-12-13T06:18:54.473Z,-3.05
2022-12-13T06:21:27.222Z,-3.07
2022-12-13T06:23:55.656Z,-3.20
2022-12-13T06:26:23.316Z,-3.15
2022-12-13T06:28:50.994Z,-3.15
2022-12-13T06:31:20.131Z,-3.13
2022-12-13T06:33:47.828Z,-2.93
2022-12-13T06:36:15.487Z,-2.86
2022-12-13T06:38:43.822Z,-2.85
2022-12-13T06:41:13.687Z,-2.97
2022-12-13T06:43:42.804Z,-2.98
2022-12-13T06:46:10.736Z,-3.06
2022-12-13T06:48:41.075Z,-3.00
2022-12-13T06:51:09.774Z,-3.10
2022-12-13T06:53:38.539Z,-2.96
2022-12-13T06:56:07.912Z,-3.03
2022-12-13T06:58:36.138Z,-3.23
2022-12-13T07:01:04.627Z,-3.59
2022-12-13T07:03:32.929Z,-3.58
2022-12-13T07:06:05.822Z,-3.63
2022-12-13T07:08:33.673Z,-3.61
2022-12-13T07:11:01.452Z,-3.58
2022-12-13T07:13:29.172Z,-3.64
2022-12-13T07:16:01.183Z,-3.51
2022-12-13T07:18:29.015Z,-3.46
2022-12-13T07:20:56.531Z,-3.48
2022-12-13T07:23:25.431Z,-3.51
2022-12-13T07:25:54.324Z,-3.67
2022-12-13T07:28:22.939Z,-3.49
2022-12-13T07:30:50.595Z,-3.47
2022-12-13T07:33:22.229Z,-3.41
2022-12-13T07:35:55.446Z,-3.56
2022-12-13T07:38:24.733Z,-3.65
2022-12-13T07:40:52.519Z,-3.56
2022-12-13T07:43:20.509Z,-3.60
2022-12-13T07:45:48.343Z,-3.77
2022-12-13T07:48:16.055Z,-3.73
2022-12-13T07:50:44.047Z,-3.77
2022-12-13T07:53:11.780Z,-3.80
2022-12-13T07:55:40.840Z,-3.74
2022-12-13T07:58:11.403Z,-3.83
2022-12-13T08:00:39.557Z,-3.70
2022-12-13T08:03:07.576Z,-3.71
2022-12-13T08:05:38.348Z,-3.61
2022-12-13T08:08:08.290Z,-3.66
2022-12-13T08:10:36.538Z,-3.75
2022-12-13T08:13:06.100Z,-3.75
2022-12-13T08:15:33.959Z,-3.74
2022-12-13T08:18:01.873Z,-3.77
2022-12-13T08:20:29.575Z,-3.63
2022-12-13T08:23:02.080Z,-3.56
2022-12-13T08:25:30.715Z,-3.45
2022-12-13T08:28:01.600Z,-3.34
2022-12-13T08:30:32.392Z,-3.29
2022-12-13T08:33:05.291Z,-3.30
2022-12-13T08:35:34.468Z,-3.18
2022-12-13T08:38:02.687Z,-3.04
2022-12-13T08:40:30.322Z,-2.97
2022-12-13T08:42:57.976Z,-2.76
2022-12-13T08:45:26.983Z,-2.70
2022-12-13T08:47:58.508Z,-2.71
2022-12-13T08:50:26.444Z,-2.57
2022-12-13T08:52:54.131Z,-2.49
2022-12-13T08:55:31.422Z,-2.46
2022-12-13T08:58:01.174Z,-2.25
2022-12-13T09:00:29.254Z,-2.11
2022-12-13T09:03:06.231Z,-1.97
2022-12-13T09:05:38.029Z,-2.05
2022-12-13T09:08:23.322Z,-1.88
2022-12-13T09:10:59.947Z,-1.75
2022-12-13T09:13:32.539Z,-1.60
2022-12-13T09:16:04.535Z,-1.46
2022-12-13T09:18:36.651Z,-1.36
2022-12-13T09:21:10.862Z,-1.11
2022-12-13T09:23:45.637Z,-0.95
2022-12-13T09:26:16.053Z,-0.83
2022-12-13T09:28:43.899Z,-0.69
2022-12-13T09:31:13.522Z,-0.61
2022-12-13T09:33:43.012Z,-0.49
2022-12-13T09:36:12.971Z,-0.36
2022-12-13T09:38:40.938Z,-0.22
2022-12-13T09:41:19.845Z,-0.17
2022-12-13T09:43:51.552Z,-0.03
2022-12-13T09:46:24.597Z,0.13
2022-12-13T09:49:01.581Z,0.15
2022-12-13T09:51:43.383Z,0.24
2022-12-13T09:54:18.057Z,0.35
2022-12-13T09:56:50.575Z,0.37
2022-12-13T09:59:19.340Z,0.62
2022-12-13T10:01:47.723Z,0.43
2022-12-13T10:04:19.885Z,0.55
2022-12-13T10:06:47.552Z,0.71
2022-12-13T10:09:15.432Z,0.77
2022-12-13T10:11:50.816Z,0.78
2022-12-13T10:14:23.932Z,0.86
2022-12-13T10:16:53.444Z,0.89
2022-12-13T10:19:28.420Z,1.07
2022-12-13T10:22:02.131Z,1.13
2022-12-13T10:24:37.330Z,1.07
2022-12-13T10:27:13.406Z,1.07
2022-12-13T10:29:59.923Z,1.09
2022-12-13T10:32:28.015Z,1.06
2022-12-13T10:34:57.155Z,1.17
2022-12-13T10:37:30.335Z,1.25
2022-12-13T10:39:58.752Z,1.31
2022-12-13T10:42:32.137Z,1.33
2022-12-13T10:45:15.623Z,1.45
2022-12-13T10:47:45.249Z,1.59
2022-12-13T10:50:25.391Z,1.54
2022-12-13T10:52:52.947Z,1.68
2022-12-13T10:55:24.194Z,1.76
2022-12-13T10:57:52.240Z,1.82
2022-12-13T11:00:31.277Z,1.90
2022-12-13T11:02:58.993Z,2.06
2022-12-13T11:05:29.456Z,2.09
2022-12-13T11:08:00.879Z,2.00
2022-12-13T11:10:29.563Z,2.19
2022-12-13T11:12:58.908Z,2.22
2022-12-13T11:15:26.596Z,2.24
2022-12-13T11:17:54.606Z,2.28
2022-12-13T11:20:23.880Z,2.41
2022-12-13T11:23:01.060Z,2.44
2022-12-13T11:25:32.548Z,2.48
2022-12-13T11:28:26.831Z,2.38
2022-12-13T11:30:58.035Z,2.42
2022-12-13T11:33:31.069Z,2.48
2022-12-13T11:36:04.260Z,2.57
2022-12-13T11:38:33.814Z,2.58
2022-12-13T11:41:04.079Z,2.09
2022-12-13T11:43:33.784Z,1.99
2022-12-13T11:46:01.647Z,2.58
2022-12-13T11:48:32.093Z,2.70
2022-12-13T11:50:59.592Z,2.80
2022-12-13T11:53:28.366Z,2.71
2022-12-13T11:55:58.895Z,2.80
2022-12-13T12:01:16.760Z,2.89
2022-12-13T12:03:46.885Z,2.96
2022-12-13T12:06:17.549Z,3.00
2022-12-13T12:08:47.062Z,3.04
2022-12-13T12:11:19.952Z,3.10
2022-12-13T12:13:51.314Z,3.04
2022-12-13T12:16:22.328Z,3.13
2022-12-13T12:18:50.875Z,3.13
2022-12-13T12:21:21.737Z,3.13
2022-12-13T12:23:53.327Z,3.12
2022-12-13T12:26:23.037Z,3.12
2022-12-13T12:28:56.462Z,2.88
2022-12-13T12:31:30.628Z,3.07
2022-12-13T12:34:00.948Z,3.17
2022-12-13T12:36:32.091Z,3.25
2022-12-13T12:39:19.886Z,3.29
2022-12-13T12:41:52.107Z,3.05
2022-12-13T12:44:22.553Z,3.05
2022-12-13T12:47:18.891Z,3.21
2022-12-13T12:50:03.250Z,2.95
2022-12-13T12:52:38.276Z,2.81
2022-12-13T12:55:13.185Z,3.17
2022-12-13T12:57:52.829Z,3.07
2022-12-13T13:00:22.635Z,3.07
2022-12-13T13:02:53.510Z,3.01
2022-12-13T13:05:26.745Z,3.06
2022-12-13T13:07:56.181Z,3.05
2022-12-13T13:10:26.749Z,2.95
2022-12-13T13:13:12.947Z,2.92
2022-12-13T13:16:04.870Z,2.82
2022-12-13T13:18:45.572Z,2.69
2022-12-13T13:21:43.479Z,2.72
2022-12-13T13:24:18.302Z,2.78
2022-12-13T13:26:46.396Z,2.67
2022-12-13T13:29:27.436Z,2.42
2022-12-13T13:32:01.158Z,2.69
2022-12-13T13:34:30.205Z,2.73
2022-12-13T13:36:57.851Z,2.47
2022-12-13T13:39:46.190Z,2.47
2022-12-13T13:42:18.753Z,2.61
2022-12-13T13:45:22.358Z,2.55
2022-12-13T13:47:54.015Z,2.38
2022-12-13T13:50:34.183Z,2.48
2022-12-13T13:53:05.107Z,2.43
2022-12-13T13:55:40.573Z,2.32
2022-12-13T13:58:22.448Z,2.06
2022-12-13T14:00:57.094Z,2.21
2022-12-13T14:03:50.893Z,2.25
2022-12-13T14:06:36.876Z,2.29
2022-12-13T14:09:40.131Z,2.11
2022-12-13T14:12:53.087Z,2.02
2022-12-13T14:16:03.674Z,1.85
2022-12-13T14:18:59.048Z,1.56
2022-12-13T14:21:36.852Z,1.45
2022-12-13T14:24:21.688Z,1.47
2022-12-13T14:27:00.542Z,1.25
2022-12-13T14:29:31.505Z,1.31
2022-12-13T14:31:59.436Z,1.23
2022-12-13T14:34:30.145Z,1.16
2022-12-13T14:36:59.711Z,1.07
2022-12-13T14:39:29.581Z,0.95
2022-12-13T14:41:58.865Z,0.89
2022-12-13T14:44:28.370Z,0.80
2022-12-13T14:46:57.495Z,0.72
2022-12-13T14:49:26.389Z,0.61
2022-12-13T14:52:01.339Z,0.44
2022-12-13T14:54:32.363Z,0.64
2022-12-13T14:57:02.744Z,0.37
2022-12-13T14:59:31.010Z,0.29
2022-12-13T15:02:02.501Z,0.28
2022-12-13T15:04:31.841Z,0.19
2022-12-13T15:07:04.557Z,0.20
2022-12-13T15:09:32.414Z,0.03
2022-12-13T15:12:23.380Z,-0.10
2022-12-13T15:14:51.294Z,-0.22
2022-12-13T15:17:27.899Z,-0.32
2022-12-13T15:19:55.878Z,-0.32
2022-12-13T15:22:29.136Z,-0.51
2022-12-13T15:24:58.325Z,-0.59
2022-12-13T15:27:26.358Z,-0.64
2022-12-13T15:29:54.684Z,-0.78
2022-12-13T15:32:23.768Z,-0.75
2022-12-13T15:34:52.351Z,-0.52
2022-12-13T15:37:29.467Z,-0.33
2022-12-13T15:40:00.788Z,-0.18
2022-12-13T15:42:32.286Z,0.05
2022-12-13T15:45:02.229Z,0.10
2022-12-13T15:47:30.032Z,0.17
2022-12-13T15:49:59.097Z,0.27
2022-12-13T15:52:34.246Z,0.27
2022-12-13T15:55:03.993Z,0.15
2022-12-13T15:57:33.396Z,0.16
2022-12-13T16:00:16.935Z,0.12
2022-12-13T16:02:52.309Z,-0.08
2022-12-13T16:05:26.821Z,-0.02
2022-12-13T16:07:56.779Z,-0.04
2022-12-13T16:10:24.981Z,-0.01
2022-12-13T16:12:58.842Z,0.07
2022-12-13T16:15:28.992Z,0.03
2022-12-13T16:18:07.507Z,-0.10
2022-12-13T16:20:35.389Z,-0.08
2022-12-13T16:23:08.973Z,-0.14
2022-12-13T16:25:37.251Z,-0.24
2022-12-13T16:28:05.584Z,-0.45
2022-12-13T16:30:56.020Z,-0.46
2022-12-13T16:33:27.470Z,-0.54
2022-12-13T16:35:57.475Z,-0.62
2022-12-13T16:38:27.474Z,-0.66
2022-12-13T16:40:56.834Z,-0.66
2022-12-13T16:43:32.823Z,-0.60
2022-12-13T16:46:02.561Z,-0.36
2022-12-13T16:48:50.027Z,-0.38
2022-12-13T16:51:18.068Z,-0.12
2022-12-13T16:53:47.123Z,-0.12
2022-12-13T16:56:17.064Z,-0.25
2022-12-13T16:58:49.566Z,-0.19
2022-12-13T17:01:19.228Z,-0.12
2022-12-13T17:03:46.803Z,0.04
2022-12-13T17:06:14.269Z,0.28
2022-12-13T17:08:41.777Z,0.30
2022-12-13T17:11:16.152Z,0.24
2022-12-13T17:13:47.392Z,0.22
2022-12-13T17:16:15.274Z,0.08
2022-12-13T17:18:43.140Z,0.29
2022-12-13T17:21:11.494Z,0.44
2022-12-13T17:23:39.205Z,0.12
2022-12-13T17:26:07.897Z,0.17
2022-12-13T17:28:36.951Z,0.25
2022-12-13T17:31:08.598Z,0.01
2022-12-13T17:33:36.873Z,0.27
2022-12-13T17:36:05.326Z,0.07
2022-12-13T17:38:33.250Z,0.25
2022-12-13T17:41:00.955Z,0.28
2022-12-13T17:43:35.675Z,0.28
2022-12-13T17:46:06.317Z,0.31
2022-12-13T17:48:40.476Z,0.34
2022-12-13T17:51:09.403Z,0.22
2022-12-13T17:53:37.653Z,0.24
2022-12-13T17:56:07.632Z,0.29
2022-12-13T17:58:35.968Z,0.25
2022-12-13T18:01:12.981Z,0.15
2022-12-13T18:03:41.152Z,0.04
2022-12-13T18:06:09.196Z,0.22
2022-12-13T18:08:38.807Z,-0.02
2022-12-13T18:13:55.843Z,-0.34
2022-12-13T18:16:33.991Z,0.16
2022-12-13T18:19:03.987Z,0.11
2022-12-13T18:21:31.696Z,0.14
2022-12-13T18:24:00.033Z,0.16
2022-12-13T18:26:27.488Z,0.16
2022-12-13T18:28:54.967Z,0.14
2022-12-13T18:31:24.046Z,0.14
2022-12-13T18:33:54.459Z,0.17
2022-12-13T18:36:22.539Z,0.09
2022-12-13T18:38:50.065Z,0.23
2022-12-13T18:41:18.366Z,0.17
2022-12-13T18:43:46.137Z,0.08
2022-12-13T18:46:14.763Z,0.33
2022-12-13T18:48:42.744Z,0.31
2022-12-13T18:51:11.772Z,0.28
2022-12-13T18:53:40.072Z,0.27
2022-12-13T18:56:17.486Z,0.34
2022-12-13T18:58:46.558Z,0.26
2022-12-13T19:01:15.560Z,0.29
2022-12-13T19:03:44.627Z,0.34
2022-12-13T19:06:17.640Z,0.28
2022-12-13T19:08:48.150Z,0.28
2022-12-13T19:11:15.822Z,0.32
2022-12-13T19:13:43.468Z,0.39
2022-12-13T19:16:13.230Z,0.44
2022-12-13T19:18:40.977Z,0.12
2022-12-13T19:21:10.077Z,0.30
2022-12-13T19:23:40.760Z,0.37
2022-12-13T19:26:09.281Z,0.25
2022-12-13T19:28:38.019Z,0.22
2022-12-13T19:31:06.499Z,0.25
2022-12-13T19:33:34.824Z,0.22
2022-12-13T19:36:03.696Z,0.31
2022-12-13T19:38:31.361Z,0.37
2022-12-13T19:41:01.078Z,0.15
2022-12-13T19:43:28.838Z,0.35
2022-12-13T19:45:56.698Z,0.48
2022-12-13T19:48:24.132Z,0.34
2022-12-13T19:50:51.668Z,0.38
2022-12-13T19:53:19.139Z,0.48
2022-12-13T19:55:48.407Z,0.57
2022-12-13T19:58:17.673Z,0.32
2022-12-13T20:00:45.436Z,0.39
2022-12-13T20:03:13.213Z,0.39
2022-12-13T20:05:45.483Z,0.41
2022-12-13T20:08:13.523Z,0.30
2022-12-13T20:10:41.468Z,0.23
2022-12-13T20:13:09.837Z,0.24
2022-12-13T20:15:38.820Z,0.29
2022-12-13T20:18:06.544Z,0.19
2022-12-13T20:21:02.483Z,0.32
2022-12-13T20:23:21.615Z,0.27
2022-12-13T20:25:49.056Z,0.20
2022-12-13T20:28:16.670Z,0.08
2022-12-13T20:30:45.487Z,0.15
2022-12-13T20:33:14.596Z,-0.06
2022-12-13T20:36:15.192Z,0.10
2022-12-13T20:38:34.372Z,0.10
2022-12-13T20:41:02.265Z,-0.11
2022-12-13T20:43:30.638Z,0.15
2022-12-13T20:46:04.637Z,0.22
2022-12-13T20:48:32.405Z,0.25
2022-12-13T20:51:00.847Z,0.30
2022-12-13T20:53:28.982Z,0.36
2022-12-13T20:55:58.076Z,0.47
2022-12-13T20:58:26.071Z,0.44
2022-12-13T21:00:54.068Z,0.32
2022-12-13T21:03:23.233Z,0.44
2022-12-13T21:05:51.012Z,0.38
2022-12-13T21:08:36.115Z,-0.06
2022-12-13T21:11:24.323Z,-0.27
2022-12-13T21:13:52.147Z,-0.24
2022-12-13T21:16:20.258Z,-0.01
2022-12-13T21:18:49.446Z,0.25
2022-12-13T21:21:17.141Z,0.26
2022-12-13T21:23:44.829Z,0.16
2022-12-13T21:26:12.307Z,0.12
2022-12-13T21:28:40.462Z,-0.03
2022-12-13T21:31:08.961Z,-0.18
2022-12-13T21:33:37.156Z,-0.18
2022-12-13T21:36:14.329Z,-0.12
2022-12-13T21:38:41.958Z,-0.12
2022-12-13T21:41:09.645Z,0.02
2022-12-13T21:43:40.605Z,-0.06
2022-12-13T21:46:10.025Z,-0.01
2022-12-13T21:48:38.734Z,-0.27
2022-12-13T21:51:07.733Z,-0.11
2022-12-13T21:53:36.768Z,-0.11
2022-12-13T21:56:34.871Z,-0.14
2022-12-13T21:59:17.716Z,-0.26
2022-12-13T22:02:03.673Z,-0.14
2022-12-13T22:04:31.336Z,-0.29
2022-12-13T22:06:59.011Z,-0.37
2022-12-13T22:09:28.068Z,-0.75
2022-12-13T22:11:55.871Z,-0.39
2022-12-13T22:14:23.654Z,-0.63
2022-12-13T22:16:51.708Z,-0.48
2022-12-13T22:19:19.521Z,-0.73
2022-12-13T22:21:47.028Z,-0.61
2022-12-13T22:24:14.628Z,-0.44
2022-12-13T22:26:43.512Z,-0.28
2022-12-13T22:29:12.020Z,-0.50
2022-12-13T22:31:39.891Z,-0.33
2022-12-13T22:34:07.928Z,-0.42
2022-12-13T22:36:35.671Z,-0.74
2022-12-13T22:39:03.487Z,-0.45
2022-12-13T22:41:31.244Z,-0.44
2022-12-13T22:44:00.972Z,-0.51
2022-12-13T22:46:29.578Z,-0.49
2022-12-13T22:48:57.626Z,-0.86
2022-12-13T22:51:25.276Z,-1.01
2022-12-13T22:53:52.980Z,-0.93
2022-12-13T22:56:22.163Z,-0.63
2022-12-13T22:58:55.049Z,-0.56
2022-12-13T23:01:24.939Z,-0.59
2022-12-13T23:03:52.536Z,-0.65
2022-12-13T23:06:20.621Z,-0.59
2022-12-13T23:08:50.657Z,-0.86
2022-12-13T23:11:35.954Z,-0.75
2022-12-13T23:14:06.430Z,-1.18
2022-12-13T23:16:36.153Z,-1.13
2022-12-13T23:19:39.083Z,-1.16
2022-12-13T23:21:53.613Z,-1.37
2022-12-13T23:24:21.436Z,-1.13
2022-12-13T23:26:49.381Z,-1.18
2022-12-13T23:29:16.839Z,-1.47
2022-12-13T23:31:48.478Z,-1.38
2022-12-13T23:34:16.556Z,-1.41
2022-12-13T23:36:44.039Z,-1.53
2022-12-13T23:39:11.957Z,-1.43
2022-12-13T23:41:39.540Z,-1.82
2022-12-13T23:44:07.092Z,-1.61
2022-12-13T23:46:35.366Z,-1.56
2022-12-13T23:49:05.625Z,-1.68
2022-12-13T23:51:34.380Z,-1.53
2022-12-13T23:54:02.224Z,-1.59
2022-12-13T23:56:30.314Z,-1.54
2022-12-13T23:58:58.257Z,-1.50
